Terminal Aerodrome Forecast
Issued by NWS

Home | Current Version | Previous Version | Text Only | Print | Product List | Glossary On
Versions: 1 2 3 4 5 6 7 8 9 10 11 12 13 14 15 16 17 18 19 20 21 22 23 24 25 26 27 28
705
FTUS41 KBUF 091431 AAB
TAFIAG
TAF AMD
KIAG 091431Z 0915/1012 23010KT P6SM VCSH SCT008 BKN015
     FM092200 23012KT P6SM VCSH OVC025
     FM100400 23012KT P6SM VCSH OVC015
     FM100900 25010KT 2SM -SN BKN007=

USA.gov is the U.S. government's official web portal to all federal, state and local government web resources and services.